CDT,Max TemperatureF,Mean TemperatureF,Min TemperatureF,Max Dew PointF,MeanDew PointF,Min DewpointF,Max Humidity, Mean Humidity, Min Humidity, Max Sea Level PressureIn, Mean Sea Level PressureIn, Min Sea Level PressureIn, Max VisibilityMiles, Mean VisibilityMiles, Min VisibilityMiles, Max Wind SpeedMPH, Mean Wind SpeedMPH, Max Gust SpeedMPH,PrecipitationIn, CloudCover, Events, WindDirDegrees
2012-9-1,75,63,53,63,55,48,94,74,47,30.21,30.18,30.13,10,10,10,17,6,23,0.00,0,,36
2012-9-2,75,72,66,61,59,55,83,63,50,30.08,30.02,29.98,10,10,10,12,10,,0.00,0,,74
2012-9-3,82,68,55,72,63,55,100,91,69,29.97,29.94,29.87,10,7,1,12,3,,0.00,2,,231
2012-9-4,75,68,62,70,68,63,100,92,78,29.92,29.86,29.78,10,6,0,12,4,16,0.00,5,,119
2012-9-5,75,70,60,68,62,57,100,82,57,29.84,29.80,29.76,10,9,0,15,6,20,0.00,1,,231
2012-9-6,77,66,55,55,51,46,100,57,34,29.93,29.91,29.88,10,10,10,9,4,16,0.00,2,,256
2012-9-7,66,60,53,57,55,52,100,91,60,29.94,29.88,29.83,10,10,7,8,4,21,0.25,7,,299
2012-9-8,66,57,48,54,49,45,100,83,46,29.88,29.82,29.76,10,10,10,10,5,21,0.00,3,,321
2012-9-9,69,58,46,52,48,43,100,75,40,30.14,30.03,29.89,10,10,10,12,7,20,0.00,2,,346
2012-9-10,73,58,44,57,51,43,100,75,44,30.17,30.10,30.01,10,10,10,20,4,22,0.00,0,,219
2012-9-11,78,69,60,63,56,52,82,63,47,30.03,29.97,29.90,10,10,9,21,11,30,0.00,0,,213
2012-9-12,78,66,53,61,52,36,94,56,28,30.20,30.06,29.95,10,10,8,16,10,21,0.02,3,,288
2012-9-13,62,54,46,52,50,46,100,84,55,30.30,30.26,30.21,10,10,4,8,3,,0.03,4,,263
2012-9-14,68,55,42,48,44,37,100,69,35,30.33,30.28,30.26,10,9,1,13,3,22,0.00,4,,337
2012-9-15,66,54,42,57,49,39,100,77,64,30.33,30.22,30.05,10,10,10,14,6,17,0.00,8,,106
2012-9-16,77,65,53,54,49,45,77,58,32,30.04,29.95,29.88,10,10,10,20,8,28,0.00,8,,236
2012-9-17,64,56,48,55,50,46,94,77,52,29.87,29.83,29.80,10,10,8,17,7,24,0.17,8,,308
2012-9-18,53,45,37,43,37,30,93,72,41,29.99,29.90,29.83,10,10,9,14,8,25,0.00,3,,332
2012-9-19,62,48,33,54,40,32,100,74,41,29.98,29.83,29.63,10,10,9,21,7,40,0.09,4,Thunderstorm,221
2012-9-20,60,52,44,48,45,43,100,83,52,29.87,29.79,29.73,10,10,10,10,6,20,0.11,4,,262
2012-9-21,59,50,42,46,42,37,100,80,48,29.85,29.79,29.75,10,10,8,13,5,24,0.04,4,,277
2012-9-22,57,45,35,43,35,27,100,70,36,30.12,29.93,29.75,10,10,10,18,7,29,0.00,2,,332
2012-9-23,53,44,35,39,36,34,100,77,47,30.18,30.16,30.12,10,10,3,14,4,21,0.00,3,,309
2012-9-24,69,52,35,46,35,30,100,55,28,30.13,29.87,29.66,10,10,10,21,8,37,0.00,2,,255
2012-9-25,59,50,42,45,41,32,87,68,36,29.95,29.86,29.81,10,10,10,16,8,21,0.00,3,,53
2012-9-26,57,48,39,45,40,34,93,70,44,30.23,30.09,29.96,10,9,1,12,5,18,0.00,5,,33
2012-9-27,57,47,37,43,39,36,100,77,48,30.33,30.26,30.20,10,10,10,12,4,,0.00,0,,59
2012-9-28,66,50,35,46,40,34,100,72,35,30.21,30.15,30.08,10,10,4,10,3,,0.00,0,,265
2012-9-29,64,54,44,48,44,39,93,71,42,30.10,30.07,30.04,10,10,10,13,5,,0.00,0,,33
2012-9-30,60,50,39,50,44,39,100,83,59,30.06,30.03,29.97,10,10,10,13,6,,0.00,1,,37